sensor_id;sensor_type;location;lat;lon;timestamp;P1;durP1;ratioP1;P2;durP2;ratioP2
55150;SDS011;41041;43.162;20.538;2023-09-19T00:00:23;14.98;;;7.60;;
55150;SDS011;41041;43.162;20.538;2023-09-19T00:02:55;11.10;;;7.18;;
55150;SDS011;41041;43.162;20.538;2023-09-19T00:05:25;10.85;;;7.30;;
55150;SDS011;41041;43.162;20.538;2023-09-19T00:07:53;12.50;;;7.32;;
55150;SDS011;41041;43.162;20.538;2023-09-19T00:10:20;11.77;;;7.90;;
55150;SDS011;41041;43.162;20.538;2023-09-19T00:12:49;13.98;;;7.43;;
55150;SDS011;41041;43.162;20.538;2023-09-19T00:15:16;10.95;;;7.55;;
55150;SDS011;41041;43.162;20.538;2023-09-19T00:17:44;11.82;;;7.45;;
55150;SDS011;41041;43.162;20.538;2023-09-19T00:20:21;10.15;;;7.53;;
55150;SDS011;41041;43.162;20.538;2023-09-19T00:22:51;11.57;;;7.53;;
55150;SDS011;41041;43.162;20.538;2023-09-19T00:25:19;12.82;;;7.70;;
55150;SDS011;41041;43.162;20.538;2023-09-19T00:30:24;12.45;;;7.50;;
55150;SDS011;41041;43.162;20.538;2023-09-19T00:32:50;12.73;;;7.20;;
55150;SDS011;41041;43.162;20.538;2023-09-19T00:35:17;10.88;;;7.13;;
55150;SDS011;41041;43.162;20.538;2023-09-19T00:37:44;10.27;;;7.65;;
55150;SDS011;41041;43.162;20.538;2023-09-19T00:40:10;13.85;;;7.75;;
55150;SDS011;41041;43.162;20.538;2023-09-19T00:42:37;12.45;;;7.80;;
55150;SDS011;41041;43.162;20.538;2023-09-19T00:45:04;12.60;;;8.02;;
55150;SDS011;41041;43.162;20.538;2023-09-19T00:47:31;11.30;;;7.85;;
55150;SDS011;41041;43.162;20.538;2023-09-19T00:49:57;15.90;;;7.65;;
55150;SDS011;41041;43.162;20.538;2023-09-19T00:52:24;11.48;;;7.60;;
55150;SDS011;41041;43.162;20.538;2023-09-19T00:54:50;11.65;;;7.43;;
55150;SDS011;41041;43.162;20.538;2023-09-19T00:57:21;10.10;;;7.32;;
55150;SDS011;41041;43.162;20.538;2023-09-19T00:59:48;10.48;;;7.55;;
55150;SDS011;41041;43.162;20.538;2023-09-19T01:02:16;10.60;;;7.18;;
55150;SDS011;41041;43.162;20.538;2023-09-19T01:04:42;12.52;;;7.53;;
55150;SDS011;41041;43.162;20.538;2023-09-19T01:07:09;12.70;;;7.60;;
55150;SDS011;41041;43.162;20.538;2023-09-19T01:09:35;10.35;;;7.50;;
55150;SDS011;41041;43.162;20.538;2023-09-19T01:12:02;16.27;;;8.25;;
55150;SDS011;41041;43.162;20.538;2023-09-19T01:14:34;11.68;;;7.50;;
55150;SDS011;41041;43.162;20.538;2023-09-19T01:17:05;13.60;;;7.78;;
55150;SDS011;41041;43.162;20.538;2023-09-19T01:19:50;10.52;;;7.43;;
55150;SDS011;41041;43.162;20.538;2023-09-19T01:22:28;10.73;;;7.72;;
55150;SDS011;41041;43.162;20.538;2023-09-19T01:30:21;11.70;;;7.57;;
55150;SDS011;41041;43.162;20.538;2023-09-19T01:32:50;13.15;;;8.52;;
55150;SDS011;41041;43.162;20.538;2023-09-19T01:35:17;11.13;;;7.25;;
55150;SDS011;41041;43.162;20.538;2023-09-19T01:37:43;11.05;;;7.10;;
55150;SDS011;41041;43.162;20.538;2023-09-19T01:40:10;11.88;;;7.25;;
55150;SDS011;41041;43.162;20.538;2023-09-19T01:45:46;10.77;;;7.25;;
55150;SDS011;41041;43.162;20.538;2023-09-19T01:51:00;12.00;;;7.22;;
55150;SDS011;41041;43.162;20.538;2023-09-19T01:53:27;9.65;;;7.00;;
55150;SDS011;41041;43.162;20.538;2023-09-19T01:55:55;13.35;;;7.85;;
55150;SDS011;41041;43.162;20.538;2023-09-19T01:58:29;11.15;;;7.45;;
55150;SDS011;41041;43.162;20.538;2023-09-19T02:01:01;12.75;;;7.47;;
55150;SDS011;41041;43.162;20.538;2023-09-19T02:03:28;11.20;;;7.20;;
55150;SDS011;41041;43.162;20.538;2023-09-19T02:05:56;13.10;;;7.63;;
55150;SDS011;41041;43.162;20.538;2023-09-19T02:08:22;14.13;;;7.68;;
55150;SDS011;41041;43.162;20.538;2023-09-19T02:10:51;10.65;;;7.40;;
55150;SDS011;41041;43.162;20.538;2023-09-19T02:13:21;11.30;;;7.30;;
55150;SDS011;41041;43.162;20.538;2023-09-19T02:15:52;11.60;;;7.50;;
55150;SDS011;41041;43.162;20.538;2023-09-19T02:18:17;10.32;;;7.30;;
55150;SDS011;41041;43.162;20.538;2023-09-19T02:20:43;14.05;;;7.50;;
55150;SDS011;41041;43.162;20.538;2023-09-19T02:23:11;10.02;;;6.75;;
55150;SDS011;41041;43.162;20.538;2023-09-19T02:25:38;11.40;;;7.22;;
55150;SDS011;41041;43.162;20.538;2023-09-19T02:28:07;12.60;;;7.90;;
55150;SDS011;41041;43.162;20.538;2023-09-19T02:30:34;13.52;;;8.13;;
55150;SDS011;41041;43.162;20.538;2023-09-19T02:33:01;12.10;;;8.07;;
55150;SDS011;41041;43.162;20.538;2023-09-19T02:35:36;12.27;;;7.30;;
55150;SDS011;41041;43.162;20.538;2023-09-19T02:38:03;16.42;;;7.43;;
55150;SDS011;41041;43.162;20.538;2023-09-19T02:40:31;12.20;;;7.80;;
55150;SDS011;41041;43.162;20.538;2023-09-19T02:45:47;10.73;;;7.32;;
55150;SDS011;41041;43.162;20.538;2023-09-19T02:48:15;11.02;;;7.72;;
55150;SDS011;41041;43.162;20.538;2023-09-19T02:53:26;14.20;;;7.88;;
55150;SDS011;41041;43.162;20.538;2023-09-19T02:55:52;16.58;;;8.63;;
55150;SDS011;41041;43.162;20.538;2023-09-19T02:58:19;11.70;;;8.73;;
55150;SDS011;41041;43.162;20.538;2023-09-19T03:00:45;14.85;;;8.85;;
55150;SDS011;41041;43.162;20.538;2023-09-19T03:03:15;14.48;;;8.15;;
55150;SDS011;41041;43.162;20.538;2023-09-19T03:05:41;11.43;;;8.10;;
55150;SDS011;41041;43.162;20.538;2023-09-19T03:11:05;13.85;;;8.20;;
55150;SDS011;41041;43.162;20.538;2023-09-19T03:13:31;11.63;;;7.50;;
55150;SDS011;41041;43.162;20.538;2023-09-19T03:15:57;12.05;;;7.97;;
55150;SDS011;41041;43.162;20.538;2023-09-19T03:18:26;12.45;;;8.00;;
55150;SDS011;41041;43.162;20.538;2023-09-19T03:20:53;13.27;;;8.35;;
55150;SDS011;41041;43.162;20.538;2023-09-19T03:23:20;11.77;;;7.70;;
55150;SDS011;41041;43.162;20.538;2023-09-19T03:25:46;12.63;;;8.20;;
55150;SDS011;41041;43.162;20.538;2023-09-19T03:28:12;13.70;;;7.72;;
55150;SDS011;41041;43.162;20.538;2023-09-19T03:30:40;11.23;;;8.50;;
55150;SDS011;41041;43.162;20.538;2023-09-19T03:33:07;15.50;;;8.80;;
55150;SDS011;41041;43.162;20.538;2023-09-19T03:35:33;11.93;;;7.85;;
55150;SDS011;41041;43.162;20.538;2023-09-19T03:38:00;10.88;;;8.15;;
55150;SDS011;41041;43.162;20.538;2023-09-19T03:40:26;14.05;;;8.40;;
55150;SDS011;41041;43.162;20.538;2023-09-19T03:42:52;11.80;;;8.63;;
55150;SDS011;41041;43.162;20.538;2023-09-19T03:45:18;12.93;;;8.98;;
55150;SDS011;41041;43.162;20.538;2023-09-19T03:47:52;13.00;;;9.05;;
55150;SDS011;41041;43.162;20.538;2023-09-19T03:50:18;14.25;;;8.82;;
55150;SDS011;41041;43.162;20.538;2023-09-19T03:52:44;14.00;;;8.80;;
55150;SDS011;41041;43.162;20.538;2023-09-19T03:55:11;11.95;;;8.15;;
55150;SDS011;41041;43.162;20.538;2023-09-19T03:57:37;14.95;;;8.88;;
55150;SDS011;41041;43.162;20.538;2023-09-19T04:00:03;13.52;;;8.32;;
55150;SDS011;41041;43.162;20.538;2023-09-19T04:02:41;14.73;;;9.00;;
55150;SDS011;41041;43.162;20.538;2023-09-19T04:05:11;19.02;;;8.77;;
55150;SDS011;41041;43.162;20.538;2023-09-19T04:07:43;15.88;;;8.95;;
55150;SDS011;41041;43.162;20.538;2023-09-19T04:10:12;14.85;;;8.93;;
55150;SDS011;41041;43.162;20.538;2023-09-19T04:12:52;16.20;;;8.65;;
55150;SDS011;41041;43.162;20.538;2023-09-19T04:15:22;15.38;;;8.57;;
55150;SDS011;41041;43.162;20.538;2023-09-19T04:17:49;10.50;;;8.05;;
55150;SDS011;41041;43.162;20.538;2023-09-19T04:20:16;12.18;;;8.13;;
55150;SDS011;41041;43.162;20.538;2023-09-19T04:22:43;12.52;;;8.02;;
55150;SDS011;41041;43.162;20.538;2023-09-19T04:25:09;13.30;;;7.95;;
55150;SDS011;41041;43.162;20.538;2023-09-19T04:27:35;18.92;;;8.45;;
55150;SDS011;41041;43.162;20.538;2023-09-19T04:30:01;13.27;;;8.38;;
55150;SDS011;41041;43.162;20.538;2023-09-19T04:32:29;11.95;;;8.23;;
55150;SDS011;41041;43.162;20.538;2023-09-19T04:34:57;14.45;;;8.10;;
55150;SDS011;41041;43.162;20.538;2023-09-19T04:37:25;15.30;;;8.00;;
55150;SDS011;41041;43.162;20.538;2023-09-19T04:39:51;15.73;;;8.27;;
55150;SDS011;41041;43.162;20.538;2023-09-19T04:42:17;15.13;;;8.30;;
55150;SDS011;41041;43.162;20.538;2023-09-19T04:44:50;15.25;;;8.50;;
55150;SDS011;41041;43.162;20.538;2023-09-19T04:47:18;17.33;;;8.95;;
55150;SDS011;41041;43.162;20.538;2023-09-19T04:49:44;17.13;;;9.23;;
55150;SDS011;41041;43.162;20.538;2023-09-19T04:52:10;21.48;;;9.40;;
55150;SDS011;41041;43.162;20.538;2023-09-19T04:54:36;18.77;;;8.60;;
55150;SDS011;41041;43.162;20.538;2023-09-19T04:57:10;12.52;;;8.52;;
55150;SDS011;41041;43.162;20.538;2023-09-19T04:59:37;17.95;;;8.82;;
55150;SDS011;41041;43.162;20.538;2023-09-19T05:02:06;14.75;;;9.27;;
55150;SDS011;41041;43.162;20.538;2023-09-19T05:04:35;12.48;;;8.00;;
55150;SDS011;41041;43.162;20.538;2023-09-19T05:07:01;14.43;;;8.60;;
55150;SDS011;41041;43.162;20.538;2023-09-19T05:09:28;13.90;;;9.23;;
55150;SDS011;41041;43.162;20.538;2023-09-19T05:11:54;15.73;;;9.25;;
55150;SDS011;41041;43.162;20.538;2023-09-19T05:14:21;13.85;;;9.00;;
55150;SDS011;41041;43.162;20.538;2023-09-19T05:16:48;14.32;;;9.00;;
55150;SDS011;41041;43.162;20.538;2023-09-19T05:19:14;13.55;;;9.20;;
55150;SDS011;41041;43.162;20.538;2023-09-19T05:21:41;16.63;;;8.93;;
55150;SDS011;41041;43.162;20.538;2023-09-19T05:24:07;16.40;;;10.68;;
55150;SDS011;41041;43.162;20.538;2023-09-19T05:26:33;22.88;;;9.52;;
55150;SDS011;41041;43.162;20.538;2023-09-19T05:28:59;17.38;;;8.98;;
55150;SDS011;41041;43.162;20.538;2023-09-19T05:31:27;18.63;;;10.00;;
55150;SDS011;41041;43.162;20.538;2023-09-19T05:33:53;18.95;;;9.40;;
55150;SDS011;41041;43.162;20.538;2023-09-19T05:36:20;15.27;;;9.68;;
55150;SDS011;41041;43.162;20.538;2023-09-19T05:38:46;18.65;;;9.65;;
55150;SDS011;41041;43.162;20.538;2023-09-19T05:41:15;15.63;;;8.70;;
55150;SDS011;41041;43.162;20.538;2023-09-19T05:43:43;15.38;;;9.20;;
55150;SDS011;41041;43.162;20.538;2023-09-19T05:46:09;13.30;;;9.23;;
55150;SDS011;41041;43.162;20.538;2023-09-19T05:48:35;16.15;;;9.27;;
55150;SDS011;41041;43.162;20.538;2023-09-19T05:51:01;19.65;;;9.15;;
55150;SDS011;41041;43.162;20.538;2023-09-19T05:53:27;16.35;;;10.10;;
55150;SDS011;41041;43.162;20.538;2023-09-19T05:56:04;13.52;;;9.23;;
55150;SDS011;41041;43.162;20.538;2023-09-19T05:58:30;15.85;;;9.38;;
55150;SDS011;41041;43.162;20.538;2023-09-19T06:00:56;16.88;;;9.13;;
55150;SDS011;41041;43.162;20.538;2023-09-19T06:03:25;13.40;;;8.73;;
55150;SDS011;41041;43.162;20.538;2023-09-19T06:05:51;17.95;;;9.50;;
55150;SDS011;41041;43.162;20.538;2023-09-19T06:08:22;14.65;;;8.98;;
55150;SDS011;41041;43.162;20.538;2023-09-19T06:13:51;17.52;;;9.07;;
55150;SDS011;41041;43.162;20.538;2023-09-19T06:16:18;14.77;;;8.98;;
55150;SDS011;41041;43.162;20.538;2023-09-19T06:18:44;13.02;;;9.10;;
55150;SDS011;41041;43.162;20.538;2023-09-19T06:21:10;14.50;;;9.07;;
55150;SDS011;41041;43.162;20.538;2023-09-19T06:23:37;14.43;;;9.18;;
55150;SDS011;41041;43.162;20.538;2023-09-19T06:26:03;15.77;;;9.60;;
55150;SDS011;41041;43.162;20.538;2023-09-19T06:28:31;17.30;;;9.48;;
55150;SDS011;41041;43.162;20.538;2023-09-19T06:30:58;15.63;;;10.23;;
55150;SDS011;41041;43.162;20.538;2023-09-19T06:33:24;23.42;;;11.25;;
55150;SDS011;41041;43.162;20.538;2023-09-19T06:35:50;23.40;;;10.35;;
55150;SDS011;41041;43.162;20.538;2023-09-19T06:38:17;16.88;;;9.55;;
55150;SDS011;41041;43.162;20.538;2023-09-19T06:40:44;18.45;;;10.77;;
55150;SDS011;41041;43.162;20.538;2023-09-19T06:43:22;19.88;;;11.32;;
55150;SDS011;41041;43.162;20.538;2023-09-19T06:45:49;17.30;;;10.45;;
55150;SDS011;41041;43.162;20.538;2023-09-19T06:48:16;20.92;;;11.07;;
55150;SDS011;41041;43.162;20.538;2023-09-19T06:50:43;28.63;;;14.95;;
55150;SDS011;41041;43.162;20.538;2023-09-19T06:53:09;20.90;;;13.68;;
55150;SDS011;41041;43.162;20.538;2023-09-19T06:55:36;19.25;;;10.60;;
55150;SDS011;41041;43.162;20.538;2023-09-19T06:58:02;21.45;;;10.48;;
55150;SDS011;41041;43.162;20.538;2023-09-19T07:00:29;22.63;;;10.15;;
55150;SDS011;41041;43.162;20.538;2023-09-19T07:05:25;15.30;;;10.50;;
55150;SDS011;41041;43.162;20.538;2023-09-19T07:07:52;20.95;;;10.45;;
55150;SDS011;41041;43.162;20.538;2023-09-19T07:10:20;19.90;;;10.40;;
55150;SDS011;41041;43.162;20.538;2023-09-19T07:12:54;16.17;;;9.65;;
55150;SDS011;41041;43.162;20.538;2023-09-19T07:15:20;15.93;;;9.88;;
55150;SDS011;41041;43.162;20.538;2023-09-19T07:17:48;17.42;;;10.68;;
55150;SDS011;41041;43.162;20.538;2023-09-19T07:20:14;27.33;;;10.73;;
55150;SDS011;41041;43.162;20.538;2023-09-19T07:22:41;21.52;;;9.68;;
55150;SDS011;41041;43.162;20.538;2023-09-19T07:25:07;29.55;;;14.38;;
55150;SDS011;41041;43.162;20.538;2023-09-19T07:27:39;16.98;;;11.13;;
55150;SDS011;41041;43.162;20.538;2023-09-19T07:30:06;14.65;;;9.48;;
55150;SDS011;41041;43.162;20.538;2023-09-19T07:32:33;18.05;;;10.25;;
55150;SDS011;41041;43.162;20.538;2023-09-19T07:35:04;23.17;;;10.60;;
55150;SDS011;41041;43.162;20.538;2023-09-19T07:37:31;20.20;;;10.70;;
55150;SDS011;41041;43.162;20.538;2023-09-19T07:40:01;18.45;;;11.30;;
55150;SDS011;41041;43.162;20.538;2023-09-19T07:45:09;16.33;;;10.32;;
55150;SDS011;41041;43.162;20.538;2023-09-19T07:47:38;19.48;;;9.88;;
55150;SDS011;41041;43.162;20.538;2023-09-19T07:50:05;15.38;;;9.45;;
55150;SDS011;41041;43.162;20.538;2023-09-19T07:52:32;16.55;;;10.10;;
55150;SDS011;41041;43.162;20.538;2023-09-19T07:54:58;18.58;;;9.90;;
55150;SDS011;41041;43.162;20.538;2023-09-19T08:09:50;15.52;;;8.10;;
55150;SDS011;41041;43.162;20.538;2023-09-19T08:12:16;11.60;;;7.97;;
55150;SDS011;41041;43.162;20.538;2023-09-19T08:14:44;13.98;;;8.30;;
55150;SDS011;41041;43.162;20.538;2023-09-19T08:17:12;12.63;;;8.20;;
55150;SDS011;41041;43.162;20.538;2023-09-19T08:19:38;11.50;;;7.78;;
55150;SDS011;41041;43.162;20.538;2023-09-19T08:22:07;15.02;;;8.10;;
55150;SDS011;41041;43.162;20.538;2023-09-19T08:24:35;15.82;;;8.00;;
55150;SDS011;41041;43.162;20.538;2023-09-19T08:27:03;12.35;;;7.90;;
55150;SDS011;41041;43.162;20.538;2023-09-19T08:29:30;15.88;;;7.30;;
55150;SDS011;41041;43.162;20.538;2023-09-19T08:32:00;11.68;;;7.75;;
55150;SDS011;41041;43.162;20.538;2023-09-19T08:34:26;13.13;;;7.50;;
55150;SDS011;41041;43.162;20.538;2023-09-19T08:36:52;14.85;;;7.47;;
55150;SDS011;41041;43.162;20.538;2023-09-19T08:39:22;13.18;;;7.40;;
55150;SDS011;41041;43.162;20.538;2023-09-19T08:41:48;11.52;;;6.55;;
55150;SDS011;41041;43.162;20.538;2023-09-19T08:44:19;12.80;;;7.20;;
55150;SDS011;41041;43.162;20.538;2023-09-19T08:46:49;11.80;;;6.63;;
55150;SDS011;41041;43.162;20.538;2023-09-19T08:52:20;8.82;;;6.13;;
55150;SDS011;41041;43.162;20.538;2023-09-19T08:54:48;13.23;;;6.28;;
55150;SDS011;41041;43.162;20.538;2023-09-19T08:57:21;11.38;;;6.63;;
55150;SDS011;41041;43.162;20.538;2023-09-19T08:59:50;10.77;;;7.03;;
55150;SDS011;41041;43.162;20.538;2023-09-19T09:02:16;16.55;;;7.20;;
55150;SDS011;41041;43.162;20.538;2023-09-19T09:07:32;13.18;;;6.97;;
55150;SDS011;41041;43.162;20.538;2023-09-19T09:10:00;10.07;;;6.53;;
55150;SDS011;41041;43.162;20.538;2023-09-19T09:12:26;10.35;;;6.70;;
55150;SDS011;41041;43.162;20.538;2023-09-19T09:14:52;11.35;;;6.78;;
55150;SDS011;41041;43.162;20.538;2023-09-19T09:17:18;12.40;;;6.00;;
55150;SDS011;41041;43.162;20.538;2023-09-19T09:19:45;9.25;;;6.63;;
55150;SDS011;41041;43.162;20.538;2023-09-19T09:22:12;16.27;;;7.07;;
55150;SDS011;41041;43.162;20.538;2023-09-19T09:24:54;11.18;;;6.10;;
55150;SDS011;41041;43.162;20.538;2023-09-19T09:27:23;10.48;;;6.47;;
55150;SDS011;41041;43.162;20.538;2023-09-19T09:29:50;13.75;;;6.43;;
55150;SDS011;41041;43.162;20.538;2023-09-19T09:34:47;13.98;;;6.10;;
55150;SDS011;41041;43.162;20.538;2023-09-19T09:37:14;9.02;;;6.22;;
55150;SDS011;41041;43.162;20.538;2023-09-19T09:39:48;10.45;;;6.15;;
55150;SDS011;41041;43.162;20.538;2023-09-19T09:42:38;11.70;;;6.22;;
55150;SDS011;41041;43.162;20.538;2023-09-19T09:45:16;10.77;;;5.88;;
55150;SDS011;41041;43.162;20.538;2023-09-19T09:47:45;12.25;;;6.30;;
55150;SDS011;41041;43.162;20.538;2023-09-19T09:53:25;10.00;;;6.10;;
55150;SDS011;41041;43.162;20.538;2023-09-19T09:56:00;12.52;;;6.75;;
55150;SDS011;41041;43.162;20.538;2023-09-19T09:58:26;10.15;;;6.00;;
55150;SDS011;41041;43.162;20.538;2023-09-19T10:00:55;13.98;;;5.55;;
55150;SDS011;41041;43.162;20.538;2023-09-19T10:03:30;12.65;;;5.88;;
55150;SDS011;41041;43.162;20.538;2023-09-19T10:05:57;10.90;;;5.40;;
55150;SDS011;41041;43.162;20.538;2023-09-19T10:08:34;11.13;;;6.05;;
55150;SDS011;41041;43.162;20.538;2023-09-19T10:11:01;12.82;;;6.15;;
55150;SDS011;41041;43.162;20.538;2023-09-19T10:13:40;10.48;;;5.93;;
55150;SDS011;41041;43.162;20.538;2023-09-19T10:16:07;12.52;;;6.40;;
55150;SDS011;41041;43.162;20.538;2023-09-19T10:18:36;10.18;;;5.95;;
55150;SDS011;41041;43.162;20.538;2023-09-19T10:21:04;11.32;;;6.18;;
55150;SDS011;41041;43.162;20.538;2023-09-19T10:23:33;9.80;;;6.15;;
55150;SDS011;41041;43.162;20.538;2023-09-19T10:26:01;13.68;;;6.18;;
55150;SDS011;41041;43.162;20.538;2023-09-19T10:28:28;11.20;;;6.40;;
55150;SDS011;41041;43.162;20.538;2023-09-19T10:30:55;10.07;;;6.47;;
55150;SDS011;41041;43.162;20.538;2023-09-19T10:33:23;9.48;;;5.78;;
55150;SDS011;41041;43.162;20.538;2023-09-19T10:35:52;12.63;;;4.97;;
55150;SDS011;41041;43.162;20.538;2023-09-19T10:38:24;10.68;;;5.18;;
55150;SDS011;41041;43.162;20.538;2023-09-19T10:40:51;11.75;;;5.65;;
55150;SDS011;41041;43.162;20.538;2023-09-19T10:43:18;9.50;;;5.95;;
55150;SDS011;41041;43.162;20.538;2023-09-19T10:45:48;10.65;;;6.43;;
55150;SDS011;41041;43.162;20.538;2023-09-19T10:48:15;11.73;;;6.40;;
55150;SDS011;41041;43.162;20.538;2023-09-19T10:53:14;10.43;;;6.40;;
55150;SDS011;41041;43.162;20.538;2023-09-19T10:55:42;13.00;;;6.90;;
55150;SDS011;41041;43.162;20.538;2023-09-19T10:58:13;9.15;;;5.82;;
55150;SDS011;41041;43.162;20.538;2023-09-19T11:00:53;13.35;;;6.95;;
55150;SDS011;41041;43.162;20.538;2023-09-19T11:03:21;11.63;;;6.90;;
55150;SDS011;41041;43.162;20.538;2023-09-19T11:06:09;12.70;;;7.43;;
55150;SDS011;41041;43.162;20.538;2023-09-19T11:11:02;14.10;;;8.05;;
55150;SDS011;41041;43.162;20.538;2023-09-19T11:13:29;13.50;;;8.00;;
55150;SDS011;41041;43.162;20.538;2023-09-19T11:16:04;14.20;;;7.40;;
55150;SDS011;41041;43.162;20.538;2023-09-19T11:24:27;10.57;;;6.30;;
55150;SDS011;41041;43.162;20.538;2023-09-19T11:29:43;11.95;;;6.90;;
55150;SDS011;41041;43.162;20.538;2023-09-19T11:32:09;12.77;;;7.55;;
55150;SDS011;41041;43.162;20.538;2023-09-19T11:40:06;14.02;;;6.63;;
55150;SDS011;41041;43.162;20.538;2023-09-19T11:48:23;12.65;;;7.10;;
55150;SDS011;41041;43.162;20.538;2023-09-19T11:50:52;10.90;;;6.38;;
55150;SDS011;41041;43.162;20.538;2023-09-19T11:53:19;14.25;;;6.55;;
55150;SDS011;41041;43.162;20.538;2023-09-19T11:55:45;14.35;;;7.03;;
55150;SDS011;41041;43.162;20.538;2023-09-19T12:00:58;10.85;;;6.68;;
55150;SDS011;41041;43.162;20.538;2023-09-19T12:03:29;12.95;;;6.18;;
55150;SDS011;41041;43.162;20.538;2023-09-19T12:08:47;15.68;;;6.70;;
55150;SDS011;41041;43.162;20.538;2023-09-19T12:11:15;15.27;;;6.80;;
55150;SDS011;41041;43.162;20.538;2023-09-19T12:13:44;15.02;;;6.97;;
55150;SDS011;41041;43.162;20.538;2023-09-19T12:16:15;12.27;;;6.57;;
55150;SDS011;41041;43.162;20.538;2023-09-19T12:18:46;16.58;;;7.43;;
55150;SDS011;41041;43.162;20.538;2023-09-19T12:26:25;12.45;;;6.47;;
55150;SDS011;41041;43.162;20.538;2023-09-19T12:28:54;14.07;;;5.70;;
55150;SDS011;41041;43.162;20.538;2023-09-19T12:31:21;23.73;;;6.05;;
55150;SDS011;41041;43.162;20.538;2023-09-19T12:33:52;23.48;;;5.60;;
55150;SDS011;41041;43.162;20.538;2023-09-19T12:36:19;24.88;;;5.07;;
55150;SDS011;41041;43.162;20.538;2023-09-19T12:38:53;11.10;;;4.57;;
55150;SDS011;41041;43.162;20.538;2023-09-19T12:41:20;15.88;;;5.13;;
55150;SDS011;41041;43.162;20.538;2023-09-19T12:43:47;9.95;;;3.75;;
55150;SDS011;41041;43.162;20.538;2023-09-19T12:46:13;12.45;;;3.65;;
55150;SDS011;41041;43.162;20.538;2023-09-19T12:48:40;13.20;;;3.28;;
55150;SDS011;41041;43.162;20.538;2023-09-19T12:51:09;16.98;;;3.20;;
55150;SDS011;41041;43.162;20.538;2023-09-19T12:53:44;15.82;;;3.50;;
55150;SDS011;41041;43.162;20.538;2023-09-19T12:56:14;17.60;;;3.55;;
55150;SDS011;41041;43.162;20.538;2023-09-19T12:58:56;14.32;;;3.38;;
55150;SDS011;41041;43.162;20.538;2023-09-19T13:01:26;14.35;;;3.25;;
55150;SDS011;41041;43.162;20.538;2023-09-19T13:06:38;13.10;;;3.33;;
55150;SDS011;41041;43.162;20.538;2023-09-19T13:09:08;11.73;;;2.80;;
55150;SDS011;41041;43.162;20.538;2023-09-19T13:11:38;11.38;;;2.75;;
55150;SDS011;41041;43.162;20.538;2023-09-19T13:16:58;14.55;;;2.90;;
55150;SDS011;41041;43.162;20.538;2023-09-19T13:22:01;16.17;;;3.10;;
55150;SDS011;41041;43.162;20.538;2023-09-19T13:27:05;16.30;;;3.20;;
55150;SDS011;41041;43.162;20.538;2023-09-19T13:29:32;15.77;;;3.40;;
55150;SDS011;41041;43.162;20.538;2023-09-19T13:31:58;13.18;;;2.95;;
55150;SDS011;41041;43.162;20.538;2023-09-19T13:34:24;16.85;;;3.38;;
55150;SDS011;41041;43.162;20.538;2023-09-19T13:36:51;16.15;;;3.17;;
55150;SDS011;41041;43.162;20.538;2023-09-19T13:39:17;15.93;;;3.78;;
55150;SDS011;41041;43.162;20.538;2023-09-19T13:41:44;13.27;;;3.53;;
55150;SDS011;41041;43.162;20.538;2023-09-19T13:44:11;20.52;;;3.72;;
55150;SDS011;41041;43.162;20.538;2023-09-19T13:46:37;17.20;;;4.05;;
55150;SDS011;41041;43.162;20.538;2023-09-19T13:49:03;19.02;;;5.28;;
55150;SDS011;41041;43.162;20.538;2023-09-19T13:51:30;13.32;;;3.78;;
55150;SDS011;41041;43.162;20.538;2023-09-19T13:53:56;14.32;;;3.47;;
55150;SDS011;41041;43.162;20.538;2023-09-19T13:56:22;14.23;;;3.80;;
55150;SDS011;41041;43.162;20.538;2023-09-19T13:58:49;18.33;;;3.50;;
55150;SDS011;41041;43.162;20.538;2023-09-19T14:01:16;17.73;;;3.67;;
55150;SDS011;41041;43.162;20.538;2023-09-19T14:03:42;18.48;;;4.00;;
55150;SDS011;41041;43.162;20.538;2023-09-19T14:06:21;22.90;;;4.15;;
55150;SDS011;41041;43.162;20.538;2023-09-19T14:08:47;19.75;;;3.75;;
55150;SDS011;41041;43.162;20.538;2023-09-19T14:11:15;20.33;;;4.90;;
55150;SDS011;41041;43.162;20.538;2023-09-19T14:13:41;16.42;;;3.50;;
55150;SDS011;41041;43.162;20.538;2023-09-19T14:16:12;13.05;;;3.83;;
55150;SDS011;41041;43.162;20.538;2023-09-19T14:18:38;16.45;;;4.00;;
55150;SDS011;41041;43.162;20.538;2023-09-19T14:21:05;19.20;;;4.18;;
55150;SDS011;41041;43.162;20.538;2023-09-19T14:23:35;15.45;;;3.72;;
55150;SDS011;41041;43.162;20.538;2023-09-19T14:26:01;16.33;;;3.80;;
55150;SDS011;41041;43.162;20.538;2023-09-19T14:28:27;16.02;;;4.68;;
55150;SDS011;41041;43.162;20.538;2023-09-19T14:30:55;13.82;;;3.72;;
55150;SDS011;41041;43.162;20.538;2023-09-19T14:33:21;16.65;;;3.22;;
55150;SDS011;41041;43.162;20.538;2023-09-19T14:35:47;18.30;;;4.07;;
55150;SDS011;41041;43.162;20.538;2023-09-19T14:40:42;15.93;;;3.67;;
55150;SDS011;41041;43.162;20.538;2023-09-19T14:43:08;17.10;;;3.95;;
55150;SDS011;41041;43.162;20.538;2023-09-19T14:45:35;16.33;;;3.13;;
55150;SDS011;41041;43.162;20.538;2023-09-19T14:48:01;13.02;;;3.15;;
55150;SDS011;41041;43.162;20.538;2023-09-19T14:50:30;18.58;;;3.85;;
55150;SDS011;41041;43.162;20.538;2023-09-19T14:52:56;21.50;;;3.60;;
55150;SDS011;41041;43.162;20.538;2023-09-19T14:55:23;11.73;;;3.10;;
55150;SDS011;41041;43.162;20.538;2023-09-19T14:57:49;18.45;;;3.83;;
55150;SDS011;41041;43.162;20.538;2023-09-19T15:00:21;15.73;;;3.20;;
55150;SDS011;41041;43.162;20.538;2023-09-19T15:02:48;22.10;;;3.58;;
55150;SDS011;41041;43.162;20.538;2023-09-19T15:05:15;23.17;;;3.30;;
55150;SDS011;41041;43.162;20.538;2023-09-19T15:07:41;13.25;;;3.03;;
55150;SDS011;41041;43.162;20.538;2023-09-19T15:10:07;17.58;;;3.63;;
55150;SDS011;41041;43.162;20.538;2023-09-19T15:12:34;19.35;;;4.10;;
55150;SDS011;41041;43.162;20.538;2023-09-19T15:15:02;16.08;;;3.72;;
55150;SDS011;41041;43.162;20.538;2023-09-19T15:17:30;17.65;;;3.20;;
55150;SDS011;41041;43.162;20.538;2023-09-19T15:19:56;19.48;;;3.38;;
55150;SDS011;41041;43.162;20.538;2023-09-19T15:22:22;14.07;;;3.60;;
55150;SDS011;41041;43.162;20.538;2023-09-19T15:24:48;18.92;;;4.18;;
55150;SDS011;41041;43.162;20.538;2023-09-19T15:27:14;15.73;;;4.20;;
55150;SDS011;41041;43.162;20.538;2023-09-19T15:32:30;17.65;;;4.50;;
55150;SDS011;41041;43.162;20.538;2023-09-19T15:34:57;14.32;;;5.70;;
55150;SDS011;41041;43.162;20.538;2023-09-19T15:37:23;10.52;;;3.40;;
55150;SDS011;41041;43.162;20.538;2023-09-19T15:39:51;17.55;;;4.13;;
55150;SDS011;41041;43.162;20.538;2023-09-19T15:42:17;21.00;;;4.80;;
55150;SDS011;41041;43.162;20.538;2023-09-19T15:44:43;25.92;;;4.88;;
55150;SDS011;41041;43.162;20.538;2023-09-19T15:47:09;17.92;;;5.32;;
55150;SDS011;41041;43.162;20.538;2023-09-19T15:49:35;20.15;;;5.32;;
55150;SDS011;41041;43.162;20.538;2023-09-19T15:52:03;19.40;;;5.60;;
55150;SDS011;41041;43.162;20.538;2023-09-19T15:54:29;20.52;;;5.03;;
55150;SDS011;41041;43.162;20.538;2023-09-19T15:56:57;21.45;;;4.63;;
55150;SDS011;41041;43.162;20.538;2023-09-19T15:59:25;19.17;;;4.22;;
55150;SDS011;41041;43.162;20.538;2023-09-19T16:01:51;13.20;;;3.80;;
55150;SDS011;41041;43.162;20.538;2023-09-19T16:04:17;13.80;;;4.00;;
55150;SDS011;41041;43.162;20.538;2023-09-19T16:06:44;16.52;;;3.85;;
55150;SDS011;41041;43.162;20.538;2023-09-19T16:09:10;17.45;;;3.78;;
55150;SDS011;41041;43.162;20.538;2023-09-19T16:11:36;11.10;;;3.47;;